Sidney Richland Municipal Airport
KSDY : now visible

Airfield :











YOU CAN JOIN US ON...

 
LOGIN :

Register | Disclaimer

   EN    FR    IT 

 









Legend :    VFR   Marginal VFR   IFR   Intensive IFR   Very Intensive IFR
Visi :
Ceiling :
>= 8 km
>= 3000ft
5 to 8 km
1000 to 3000 ft
1500m to 5 km
500 to 1000 ft
800 to 1500m
200 to 500 ft
< 800m
< 200 ft
Symbols :   Thunderstorms  Fog  Heavy snow  Heavy precipitations  Wind > 20 kt







- Airport Elevation : 1985 ft


KSDY - Sidney Richland Municipal

CURRENT METAR :
  • 181056Z AUTO 29021G29KT 10SM OVC095 16/13 A2970 RMK AO2 PK WND 27029/1052 SLP453 T01560128

EXPIRED METARs :
  • 180956Z AUTO 28021G28KT 10SM OVC100 15/13 A2967 RMK AO2 PK WND 28029/0932 LTG DSNT NE-SE TSE11B17E32RAE47 SLP442 P0001 T01500133
  • 180917Z AUTO 28016G22KT 10SM VCTS -RA FEW017 SCT070 OVC100 16/14 A2965 RMK AO2 PK WND 29026/0903 LTG DSNT N-SE TSE11B17 P0001
  • 180856Z AUTO 29017G22KT 10SM -TSRA FEW015 BKN047 OVC070 16/14 A2964 RMK AO2 PK WND 29030/0834 LTG DSNT N AND SE AND S RAB09 SLP433 6//// T01610144

TAF KSDY
Valid from the 18 at 06:00 until the 19 at 06:00 UTC


180520Z 1806/1906 27011KT 5SM SHRA BKN025
FM181100 28011KT P6SM SCT025
TEMPO 1811/1814 4SM SHRA BKN040 BKN080
FM181400 28011KT P6SM FEW090
No reported NOTAMs for that airfield.



MET'MAP, your aeronautical weather chart ! - Copyright ORBIFLY December 2007 - Disclaimer

ORBIFLY MET'MAP TEAM :

Programming & Development : Alexandra Zaïnal
Concept & Development : Baudouin d'Aumeries
Co-Development & Prog : Marc-Olivier Méhu
Technical & hardware support : Manuel Goepfert

Contact : metmap@orbifly.com




SOURCES & CREDITS :

   NOAA       Earth
Advisory